sensor_id;sensor_type;location;lat;lon;timestamp;P1;durP1;ratioP1;P2;durP2;ratioP2
31978;SDS011;18502;43.574;1.276;2023-03-26T08:16:48;10.95;;;2.00;;
31978;SDS011;18502;43.574;1.276;2023-03-26T08:19:27;8.13;;;1.50;;
31978;SDS011;18502;43.574;1.276;2023-03-26T08:22:16;5.38;;;1.60;;
31978;SDS011;18502;43.574;1.276;2023-03-26T08:25:13;4.47;;;1.52;;
31978;SDS011;18502;43.574;1.276;2023-03-26T08:30:25;8.13;;;1.48;;
31978;SDS011;18502;43.574;1.276;2023-03-26T08:32:53;13.65;;;1.95;;
31978;SDS011;18502;43.574;1.276;2023-03-26T08:35:21;5.55;;;1.40;;
31978;SDS011;18502;43.574;1.276;2023-03-26T08:37:47;8.98;;;1.98;;
31978;SDS011;18502;43.574;1.276;2023-03-26T08:40:13;11.43;;;1.73;;
31978;SDS011;18502;43.574;1.276;2023-03-26T08:53:55;4.50;;;1.40;;
31978;SDS011;18502;43.574;1.276;2023-03-26T08:56:45;6.95;;;1.75;;
31978;SDS011;18502;43.574;1.276;2023-03-26T09:02:19;7.22;;;1.73;;
31978;SDS011;18502;43.574;1.276;2023-03-26T09:07:33;6.28;;;1.17;;
31978;SDS011;18502;43.574;1.276;2023-03-26T09:10:26;8.85;;;2.33;;
31978;SDS011;18502;43.574;1.276;2023-03-26T09:33:52;10.55;;;2.05;;
31978;SDS011;18502;43.574;1.276;2023-03-26T09:39:08;22.40;;;2.83;;
31978;SDS011;18502;43.574;1.276;2023-03-26T09:47:46;9.00;;;2.30;;
31978;SDS011;18502;43.574;1.276;2023-03-26T10:04:01;9.95;;;2.30;;
31978;SDS011;18502;43.574;1.276;2023-03-26T10:07:14;11.60;;;2.17;;
31978;SDS011;18502;43.574;1.276;2023-03-26T10:12:42;12.65;;;2.45;;
31978;SDS011;18502;43.574;1.276;2023-03-26T10:23:31;10.70;;;2.13;;
31978;SDS011;18502;43.574;1.276;2023-03-26T10:34:33;13.25;;;2.50;;
31978;SDS011;18502;43.574;1.276;2023-03-26T10:45:12;16.83;;;2.85;;
31978;SDS011;18502;43.574;1.276;2023-03-26T10:48:08;12.20;;;2.70;;
31978;SDS011;18502;43.574;1.276;2023-03-26T10:50:53;30.58;;;8.13;;
31978;SDS011;18502;43.574;1.276;2023-03-26T10:56:06;18.05;;;5.95;;
31978;SDS011;18502;43.574;1.276;2023-03-26T10:58:52;19.67;;;3.90;;
31978;SDS011;18502;43.574;1.276;2023-03-26T11:04:14;7.22;;;2.03;;
31978;SDS011;18502;43.574;1.276;2023-03-26T11:07:05;14.95;;;2.63;;
31978;SDS011;18502;43.574;1.276;2023-03-26T11:25:56;14.75;;;3.20;;
31978;SDS011;18502;43.574;1.276;2023-03-26T11:33:50;14.40;;;2.30;;
31978;SDS011;18502;43.574;1.276;2023-03-26T11:36:25;11.93;;;2.55;;
31978;SDS011;18502;43.574;1.276;2023-03-26T11:38:56;13.63;;;3.00;;
31978;SDS011;18502;43.574;1.276;2023-03-26T11:41:27;17.33;;;3.67;;
31978;SDS011;18502;43.574;1.276;2023-03-26T11:44:12;9.82;;;2.88;;
31978;SDS011;18502;43.574;1.276;2023-03-26T11:46:55;8.90;;;2.53;;
31978;SDS011;18502;43.574;1.276;2023-03-26T11:49:25;14.52;;;2.70;;
31978;SDS011;18502;43.574;1.276;2023-03-26T11:51:53;9.23;;;2.30;;
31978;SDS011;18502;43.574;1.276;2023-03-26T11:54:19;7.05;;;1.60;;
31978;SDS011;18502;43.574;1.276;2023-03-26T12:06:56;13.48;;;2.92;;
31978;SDS011;18502;43.574;1.276;2023-03-26T12:09:30;13.25;;;3.15;;
31978;SDS011;18502;43.574;1.276;2023-03-26T12:12:01;10.32;;;1.92;;
31978;SDS011;18502;43.574;1.276;2023-03-26T12:14:29;16.67;;;2.63;;
31978;SDS011;18502;43.574;1.276;2023-03-26T12:17:02;11.18;;;2.72;;
31978;SDS011;18502;43.574;1.276;2023-03-26T12:19:38;13.57;;;2.55;;
31978;SDS011;18502;43.574;1.276;2023-03-26T12:25:27;11.60;;;2.53;;
31978;SDS011;18502;43.574;1.276;2023-03-26T12:30:21;7.50;;;2.30;;
31978;SDS011;18502;43.574;1.276;2023-03-26T12:32:50;10.68;;;2.78;;
31978;SDS011;18502;43.574;1.276;2023-03-26T12:35:24;11.50;;;2.47;;
31978;SDS011;18502;43.574;1.276;2023-03-26T12:37:52;12.82;;;2.83;;
31978;SDS011;18502;43.574;1.276;2023-03-26T12:40:38;6.05;;;1.60;;
31978;SDS011;18502;43.574;1.276;2023-03-26T12:43:19;6.72;;;1.30;;
31978;SDS011;18502;43.574;1.276;2023-03-26T12:45:47;6.55;;;1.60;;
31978;SDS011;18502;43.574;1.276;2023-03-26T12:48:18;5.30;;;1.73;;
31978;SDS011;18502;43.574;1.276;2023-03-26T12:53:14;6.20;;;1.83;;
31978;SDS011;18502;43.574;1.276;2023-03-26T12:58:55;7.43;;;1.92;;
31978;SDS011;18502;43.574;1.276;2023-03-26T13:07:02;8.55;;;1.90;;
31978;SDS011;18502;43.574;1.276;2023-03-26T13:24:03;5.97;;;0.93;;
31978;SDS011;18502;43.574;1.276;2023-03-26T13:29:45;7.97;;;1.65;;
31978;SDS011;18502;43.574;1.276;2023-03-26T13:32:23;8.40;;;1.92;;
31978;SDS011;18502;43.574;1.276;2023-03-26T13:46:04;12.48;;;1.88;;
31978;SDS011;18502;43.574;1.276;2023-03-26T13:48:10;10.50;;;2.00;;
31978;SDS011;18502;43.574;1.276;2023-03-26T13:50:40;7.53;;;1.52;;
31978;SDS011;18502;43.574;1.276;2023-03-26T13:53:22;2.53;;;0.82;;
31978;SDS011;18502;43.574;1.276;2023-03-26T13:55:52;7.85;;;1.33;;
31978;SDS011;18502;43.574;1.276;2023-03-26T14:01:17;13.05;;;1.35;;
31978;SDS011;18502;43.574;1.276;2023-03-26T14:04:07;8.55;;;1.17;;
31978;SDS011;18502;43.574;1.276;2023-03-26T14:07:17;3.47;;;1.20;;
31978;SDS011;18502;43.574;1.276;2023-03-26T14:12:31;9.07;;;2.13;;
31978;SDS011;18502;43.574;1.276;2023-03-26T14:18:43;7.50;;;1.15;;
31978;SDS011;18502;43.574;1.276;2023-03-26T14:24:30;7.22;;;1.58;;
31978;SDS011;18502;43.574;1.276;2023-03-26T14:40:57;7.88;;;1.75;;
31978;SDS011;18502;43.574;1.276;2023-03-26T14:49:26;7.43;;;2.13;;
31978;SDS011;18502;43.574;1.276;2023-03-26T14:54:46;10.30;;;2.40;;
31978;SDS011;18502;43.574;1.276;2023-03-26T15:03:04;9.70;;;1.70;;
31978;SDS011;18502;43.574;1.276;2023-03-26T15:22:52;6.03;;;1.08;;
31978;SDS011;18502;43.574;1.276;2023-03-26T15:25:30;4.03;;;1.48;;
31978;SDS011;18502;43.574;1.276;2023-03-26T15:31:24;13.00;;;5.40;;
31978;SDS011;18502;43.574;1.276;2023-03-26T15:34:29;5.07;;;1.05;;
31978;SDS011;18502;43.574;1.276;2023-03-26T15:37:30;7.00;;;1.10;;
31978;SDS011;18502;43.574;1.276;2023-03-26T15:45:45;3.75;;;1.30;;
31978;SDS011;18502;43.574;1.276;2023-03-26T15:54:22;7.03;;;1.08;;
31978;SDS011;18502;43.574;1.276;2023-03-26T16:18:38;4.63;;;0.85;;
31978;SDS011;18502;43.574;1.276;2023-03-26T16:31:55;11.20;;;1.83;;
31978;SDS011;18502;43.574;1.276;2023-03-26T16:34:49;8.82;;;1.63;;
31978;SDS011;18502;43.574;1.276;2023-03-26T16:42:55;2.03;;;0.95;;
31978;SDS011;18502;43.574;1.276;2023-03-26T16:45:28;7.55;;;1.65;;
31978;SDS011;18502;43.574;1.276;2023-03-26T16:59:05;6.20;;;1.10;;
31978;SDS011;18502;43.574;1.276;2023-03-26T17:01:52;10.50;;;1.60;;
31978;SDS011;18502;43.574;1.276;2023-03-26T17:04:30;11.48;;;1.55;;
31978;SDS011;18502;43.574;1.276;2023-03-26T17:17:45;6.18;;;1.40;;
31978;SDS011;18502;43.574;1.276;2023-03-26T17:23:04;7.85;;;1.65;;
31978;SDS011;18502;43.574;1.276;2023-03-26T17:34:30;7.63;;;1.38;;
31978;SDS011;18502;43.574;1.276;2023-03-26T17:37:03;11.52;;;1.52;;
31978;SDS011;18502;43.574;1.276;2023-03-26T17:45:01;11.10;;;2.05;;
31978;SDS011;18502;43.574;1.276;2023-03-26T17:50:21;10.25;;;1.95;;
31978;SDS011;18502;43.574;1.276;2023-03-26T17:52:55;26.15;;;3.30;;
31978;SDS011;18502;43.574;1.276;2023-03-26T17:55:30;8.07;;;1.30;;
31978;SDS011;18502;43.574;1.276;2023-03-26T17:58:00;9.98;;;1.95;;
31978;SDS011;18502;43.574;1.276;2023-03-26T18:00:34;8.63;;;1.50;;
31978;SDS011;18502;43.574;1.276;2023-03-26T18:03:28;7.10;;;2.90;;
31978;SDS011;18502;43.574;1.276;2023-03-26T18:06:04;14.02;;;2.17;;
31978;SDS011;18502;43.574;1.276;2023-03-26T18:17:19;11.50;;;1.75;;
31978;SDS011;18502;43.574;1.276;2023-03-26T18:19:46;14.15;;;3.13;;
31978;SDS011;18502;43.574;1.276;2023-03-26T18:22:18;19.33;;;2.90;;
31978;SDS011;18502;43.574;1.276;2023-03-26T18:24:47;20.33;;;2.70;;
31978;SDS011;18502;43.574;1.276;2023-03-26T18:27:14;19.58;;;2.80;;
31978;SDS011;18502;43.574;1.276;2023-03-26T18:29:56;7.93;;;2.60;;
31978;SDS011;18502;43.574;1.276;2023-03-26T18:32:26;8.90;;;1.92;;
31978;SDS011;18502;43.574;1.276;2023-03-26T18:34:58;11.80;;;1.63;;
31978;SDS011;18502;43.574;1.276;2023-03-26T18:37:27;12.70;;;2.50;;
31978;SDS011;18502;43.574;1.276;2023-03-26T18:40:08;11.98;;;2.40;;
31978;SDS011;18502;43.574;1.276;2023-03-26T18:42:43;15.60;;;2.03;;
31978;SDS011;18502;43.574;1.276;2023-03-26T18:47:56;9.00;;;1.98;;
31978;SDS011;18502;43.574;1.276;2023-03-26T18:50:27;13.77;;;2.10;;
31978;SDS011;18502;43.574;1.276;2023-03-26T18:52:59;16.33;;;2.22;;
31978;SDS011;18502;43.574;1.276;2023-03-26T18:55:28;15.20;;;2.67;;
31978;SDS011;18502;43.574;1.276;2023-03-26T18:57:55;18.38;;;2.97;;
31978;SDS011;18502;43.574;1.276;2023-03-26T19:00:24;17.52;;;2.28;;
31978;SDS011;18502;43.574;1.276;2023-03-26T19:03:10;27.38;;;3.15;;
31978;SDS011;18502;43.574;1.276;2023-03-26T19:05:44;25.60;;;4.15;;
31978;SDS011;18502;43.574;1.276;2023-03-26T19:08:11;17.77;;;2.85;;
31978;SDS011;18502;43.574;1.276;2023-03-26T19:10:37;9.70;;;1.60;;
31978;SDS011;18502;43.574;1.276;2023-03-26T19:13:03;17.17;;;2.08;;
31978;SDS011;18502;43.574;1.276;2023-03-26T19:15:29;19.40;;;4.53;;
31978;SDS011;18502;43.574;1.276;2023-03-26T19:17:58;15.98;;;2.70;;
31978;SDS011;18502;43.574;1.276;2023-03-26T19:20:37;10.23;;;2.42;;
31978;SDS011;18502;43.574;1.276;2023-03-26T19:23:08;11.52;;;1.67;;
31978;SDS011;18502;43.574;1.276;2023-03-26T19:26:00;13.68;;;2.20;;
31978;SDS011;18502;43.574;1.276;2023-03-26T19:28:32;7.32;;;2.03;;
31978;SDS011;18502;43.574;1.276;2023-03-26T19:31:23;15.25;;;1.73;;
31978;SDS011;18502;43.574;1.276;2023-03-26T19:33:57;12.70;;;2.38;;
31978;SDS011;18502;43.574;1.276;2023-03-26T19:36:28;9.57;;;1.83;;
31978;SDS011;18502;43.574;1.276;2023-03-26T19:41:29;15.85;;;1.75;;
31978;SDS011;18502;43.574;1.276;2023-03-26T19:43:58;12.57;;;2.20;;
31978;SDS011;18502;43.574;1.276;2023-03-26T19:46:42;8.68;;;1.50;;
31978;SDS011;18502;43.574;1.276;2023-03-26T19:57:25;13.13;;;1.83;;
31978;SDS011;18502;43.574;1.276;2023-03-26T19:59:53;15.25;;;2.20;;
31978;SDS011;18502;43.574;1.276;2023-03-26T20:02:19;10.88;;;2.30;;
31978;SDS011;18502;43.574;1.276;2023-03-26T20:04:46;13.88;;;2.00;;
31978;SDS011;18502;43.574;1.276;2023-03-26T20:07:13;12.90;;;3.13;;
31978;SDS011;18502;43.574;1.276;2023-03-26T20:09:42;9.45;;;1.48;;
31978;SDS011;18502;43.574;1.276;2023-03-26T20:12:09;7.85;;;1.88;;
31978;SDS011;18502;43.574;1.276;2023-03-26T20:14:35;11.75;;;2.30;;
31978;SDS011;18502;43.574;1.276;2023-03-26T20:17:02;8.82;;;1.73;;
31978;SDS011;18502;43.574;1.276;2023-03-26T20:19:28;12.13;;;2.67;;
31978;SDS011;18502;43.574;1.276;2023-03-26T20:21:54;16.75;;;2.40;;
31978;SDS011;18502;43.574;1.276;2023-03-26T20:24:20;18.35;;;3.45;;
31978;SDS011;18502;43.574;1.276;2023-03-26T20:26:48;8.35;;;1.63;;
31978;SDS011;18502;43.574;1.276;2023-03-26T20:29:15;10.10;;;2.00;;
31978;SDS011;18502;43.574;1.276;2023-03-26T20:31:41;10.13;;;2.00;;
31978;SDS011;18502;43.574;1.276;2023-03-26T20:34:11;16.15;;;2.05;;
31978;SDS011;18502;43.574;1.276;2023-03-26T20:36:40;17.23;;;3.33;;
31978;SDS011;18502;43.574;1.276;2023-03-26T20:39:06;18.67;;;3.65;;
31978;SDS011;18502;43.574;1.276;2023-03-26T20:41:32;18.00;;;3.60;;
31978;SDS011;18502;43.574;1.276;2023-03-26T20:43:58;14.65;;;2.40;;
31978;SDS011;18502;43.574;1.276;2023-03-26T20:46:24;12.13;;;2.25;;
31978;SDS011;18502;43.574;1.276;2023-03-26T20:48:50;21.08;;;2.50;;
31978;SDS011;18502;43.574;1.276;2023-03-26T20:51:16;14.30;;;2.90;;
31978;SDS011;18502;43.574;1.276;2023-03-26T20:53:44;17.33;;;2.45;;
31978;SDS011;18502;43.574;1.276;2023-03-26T20:56:15;13.45;;;3.30;;
31978;SDS011;18502;43.574;1.276;2023-03-26T20:58:43;16.23;;;3.40;;
31978;SDS011;18502;43.574;1.276;2023-03-26T21:01:10;20.33;;;4.10;;
31978;SDS011;18502;43.574;1.276;2023-03-26T21:03:37;12.40;;;2.80;;
31978;SDS011;18502;43.574;1.276;2023-03-26T21:06:05;15.60;;;2.35;;
31978;SDS011;18502;43.574;1.276;2023-03-26T21:08:37;18.25;;;3.20;;
31978;SDS011;18502;43.574;1.276;2023-03-26T21:11:16;29.80;;;3.42;;
31978;SDS011;18502;43.574;1.276;2023-03-26T21:13:59;28.48;;;3.97;;
31978;SDS011;18502;43.574;1.276;2023-03-26T21:16:31;18.95;;;3.42;;
31978;SDS011;18502;43.574;1.276;2023-03-26T21:18:57;27.88;;;3.70;;
31978;SDS011;18502;43.574;1.276;2023-03-26T21:24:26;17.73;;;3.53;;
31978;SDS011;18502;43.574;1.276;2023-03-26T21:29:41;18.10;;;3.10;;
31978;SDS011;18502;43.574;1.276;2023-03-26T21:32:08;18.70;;;4.22;;
31978;SDS011;18502;43.574;1.276;2023-03-26T21:34:37;11.85;;;1.85;;
31978;SDS011;18502;43.574;1.276;2023-03-26T21:37:04;16.33;;;3.55;;
31978;SDS011;18502;43.574;1.276;2023-03-26T21:39:31;14.20;;;3.10;;
31978;SDS011;18502;43.574;1.276;2023-03-26T21:41:57;29.20;;;3.65;;
31978;SDS011;18502;43.574;1.276;2023-03-26T21:44:23;21.77;;;3.78;;
31978;SDS011;18502;43.574;1.276;2023-03-26T21:46:49;24.63;;;4.00;;
31978;SDS011;18502;43.574;1.276;2023-03-26T21:49:15;23.80;;;3.30;;
31978;SDS011;18502;43.574;1.276;2023-03-26T21:51:42;21.08;;;3.85;;
31978;SDS011;18502;43.574;1.276;2023-03-26T21:54:25;29.00;;;3.83;;
31978;SDS011;18502;43.574;1.276;2023-03-26T21:56:59;25.00;;;3.85;;
31978;SDS011;18502;43.574;1.276;2023-03-26T21:59:40;21.63;;;3.50;;
31978;SDS011;18502;43.574;1.276;2023-03-26T22:02:23;23.75;;;3.80;;
31978;SDS011;18502;43.574;1.276;2023-03-26T22:10:14;23.23;;;3.92;;
31978;SDS011;18502;43.574;1.276;2023-03-26T22:12:41;25.50;;;3.70;;
31978;SDS011;18502;43.574;1.276;2023-03-26T22:15:06;26.35;;;3.47;;
31978;SDS011;18502;43.574;1.276;2023-03-26T22:17:32;22.23;;;5.15;;
31978;SDS011;18502;43.574;1.276;2023-03-26T22:19:58;23.45;;;4.60;;
31978;SDS011;18502;43.574;1.276;2023-03-26T22:22:25;28.35;;;3.88;;
31978;SDS011;18502;43.574;1.276;2023-03-26T22:24:52;25.70;;;4.32;;
31978;SDS011;18502;43.574;1.276;2023-03-26T22:27:18;31.00;;;4.00;;
31978;SDS011;18502;43.574;1.276;2023-03-26T22:29:44;16.25;;;2.85;;
31978;SDS011;18502;43.574;1.276;2023-03-26T22:32:10;19.50;;;3.53;;
31978;SDS011;18502;43.574;1.276;2023-03-26T22:34:36;29.83;;;4.07;;
31978;SDS011;18502;43.574;1.276;2023-03-26T22:37:02;35.08;;;4.13;;
31978;SDS011;18502;43.574;1.276;2023-03-26T22:39:30;25.30;;;3.13;;
31978;SDS011;18502;43.574;1.276;2023-03-26T22:41:56;22.15;;;3.45;;
31978;SDS011;18502;43.574;1.276;2023-03-26T22:44:21;20.83;;;3.72;;
31978;SDS011;18502;43.574;1.276;2023-03-26T22:46:47;21.58;;;3.00;;
31978;SDS011;18502;43.574;1.276;2023-03-26T22:49:15;16.23;;;3.25;;
31978;SDS011;18502;43.574;1.276;2023-03-26T22:51:41;20.88;;;3.22;;
31978;SDS011;18502;43.574;1.276;2023-03-26T22:54:07;15.35;;;2.50;;
31978;SDS011;18502;43.574;1.276;2023-03-26T22:56:33;23.92;;;3.00;;
31978;SDS011;18502;43.574;1.276;2023-03-26T22:59:00;18.10;;;2.17;;
31978;SDS011;18502;43.574;1.276;2023-03-26T23:01:26;18.95;;;2.97;;
31978;SDS011;18502;43.574;1.276;2023-03-26T23:03:52;22.20;;;2.97;;
31978;SDS011;18502;43.574;1.276;2023-03-26T23:06:18;18.67;;;3.70;;
31978;SDS011;18502;43.574;1.276;2023-03-26T23:08:45;20.95;;;2.88;;
31978;SDS011;18502;43.574;1.276;2023-03-26T23:11:21;20.90;;;3.30;;
31978;SDS011;18502;43.574;1.276;2023-03-26T23:13:47;21.38;;;4.05;;
31978;SDS011;18502;43.574;1.276;2023-03-26T23:16:13;22.45;;;3.28;;
31978;SDS011;18502;43.574;1.276;2023-03-26T23:18:40;18.90;;;2.78;;
31978;SDS011;18502;43.574;1.276;2023-03-26T23:21:10;17.55;;;2.45;;
31978;SDS011;18502;43.574;1.276;2023-03-26T23:23:41;21.05;;;2.95;;
31978;SDS011;18502;43.574;1.276;2023-03-26T23:26:06;16.25;;;2.42;;
31978;SDS011;18502;43.574;1.276;2023-03-26T23:28:32;18.92;;;2.20;;
31978;SDS011;18502;43.574;1.276;2023-03-26T23:30:59;22.83;;;3.05;;
31978;SDS011;18502;43.574;1.276;2023-03-26T23:33:29;18.85;;;2.75;;
31978;SDS011;18502;43.574;1.276;2023-03-26T23:35:58;13.88;;;2.10;;
31978;SDS011;18502;43.574;1.276;2023-03-26T23:38:25;19.23;;;2.35;;
31978;SDS011;18502;43.574;1.276;2023-03-26T23:40:55;14.80;;;1.88;;
31978;SDS011;18502;43.574;1.276;2023-03-26T23:43:23;15.68;;;2.13;;
31978;SDS011;18502;43.574;1.276;2023-03-26T23:45:49;17.63;;;2.28;;
31978;SDS011;18502;43.574;1.276;2023-03-26T23:48:17;15.93;;;2.08;;
31978;SDS011;18502;43.574;1.276;2023-03-26T23:50:49;22.38;;;2.42;;
31978;SDS011;18502;43.574;1.276;2023-03-26T23:53:17;22.27;;;3.75;;
31978;SDS011;18502;43.574;1.276;2023-03-26T23:55:45;17.70;;;2.28;;
31978;SDS011;18502;43.574;1.276;2023-03-26T23:58:14;24.70;;;3.03;;
